sensor_id;sensor_type;location;lat;lon;timestamp;P1;durP1;ratioP1;P2;durP2;ratioP2
1428;SDS011;708;51.442;7.016;2024-02-26T00:00:02;6.90;;;6.60;;
1428;SDS011;708;51.442;7.016;2024-02-26T00:02:34;6.82;;;6.55;;
1428;SDS011;708;51.442;7.016;2024-02-26T00:05:06;6.00;;;5.80;;
1428;SDS011;708;51.442;7.016;2024-02-26T00:07:33;6.65;;;6.15;;
1428;SDS011;708;51.442;7.016;2024-02-26T00:10:00;7.93;;;7.53;;
1428;SDS011;708;51.442;7.016;2024-02-26T00:12:27;6.95;;;6.65;;
1428;SDS011;708;51.442;7.016;2024-02-26T00:14:54;7.18;;;6.88;;
1428;SDS011;708;51.442;7.016;2024-02-26T00:17:23;7.45;;;7.15;;
1428;SDS011;708;51.442;7.016;2024-02-26T00:19:49;7.40;;;7.10;;
1428;SDS011;708;51.442;7.016;2024-02-26T00:22:22;6.40;;;6.20;;
1428;SDS011;708;51.442;7.016;2024-02-26T00:24:51;6.68;;;6.38;;
1428;SDS011;708;51.442;7.016;2024-02-26T00:27:29;7.32;;;7.03;;
1428;SDS011;708;51.442;7.016;2024-02-26T00:29:56;6.45;;;6.15;;
1428;SDS011;708;51.442;7.016;2024-02-26T00:32:25;5.72;;;5.53;;
1428;SDS011;708;51.442;7.016;2024-02-26T00:34:52;7.00;;;6.60;;
1428;SDS011;708;51.442;7.016;2024-02-26T00:37:18;6.30;;;6.10;;
1428;SDS011;708;51.442;7.016;2024-02-26T00:39:46;7.03;;;6.80;;
1428;SDS011;708;51.442;7.016;2024-02-26T00:42:13;6.93;;;6.72;;
1428;SDS011;708;51.442;7.016;2024-02-26T00:44:40;6.43;;;6.22;;
1428;SDS011;708;51.442;7.016;2024-02-26T00:47:07;6.55;;;6.32;;
1428;SDS011;708;51.442;7.016;2024-02-26T00:49:33;6.15;;;5.95;;
1428;SDS011;708;51.442;7.016;2024-02-26T00:52:00;8.25;;;7.85;;
1428;SDS011;708;51.442;7.016;2024-02-26T00:54:27;6.32;;;6.13;;
1428;SDS011;708;51.442;7.016;2024-02-26T00:56:55;6.18;;;5.93;;
1428;SDS011;708;51.442;7.016;2024-02-26T00:59:22;6.10;;;5.90;;
1428;SDS011;708;51.442;7.016;2024-02-26T01:01:49;7.07;;;6.78;;
1428;SDS011;708;51.442;7.016;2024-02-26T01:04:16;7.47;;;6.47;;
1428;SDS011;708;51.442;7.016;2024-02-26T01:06:45;6.45;;;6.15;;
1428;SDS011;708;51.442;7.016;2024-02-26T01:09:13;6.45;;;6.15;;
1428;SDS011;708;51.442;7.016;2024-02-26T01:11:39;5.47;;;5.28;;
1428;SDS011;708;51.442;7.016;2024-02-26T01:14:45;7.82;;;7.53;;
1428;SDS011;708;51.442;7.016;2024-02-26T01:17:12;5.45;;;5.25;;
1428;SDS011;708;51.442;7.016;2024-02-26T01:19:39;5.70;;;5.50;;
1428;SDS011;708;51.442;7.016;2024-02-26T01:22:09;7.13;;;6.63;;
1428;SDS011;708;51.442;7.016;2024-02-26T01:24:38;5.95;;;5.75;;
1428;SDS011;708;51.442;7.016;2024-02-26T01:27:07;7.88;;;7.57;;
1428;SDS011;708;51.442;7.016;2024-02-26T01:29:48;5.82;;;5.63;;
1428;SDS011;708;51.442;7.016;2024-02-26T01:32:15;6.85;;;6.55;;
1428;SDS011;708;51.442;7.016;2024-02-26T01:34:51;5.75;;;5.55;;
1428;SDS011;708;51.442;7.016;2024-02-26T01:37:21;6.47;;;6.18;;
1428;SDS011;708;51.442;7.016;2024-02-26T01:39:53;6.25;;;6.05;;
1428;SDS011;708;51.442;7.016;2024-02-26T01:42:38;6.43;;;5.78;;
1428;SDS011;708;51.442;7.016;2024-02-26T01:45:29;6.53;;;6.32;;
1428;SDS011;708;51.442;7.016;2024-02-26T01:48:12;6.65;;;6.35;;
1428;SDS011;708;51.442;7.016;2024-02-26T01:50:39;6.10;;;5.90;;
1428;SDS011;708;51.442;7.016;2024-02-26T01:53:07;5.30;;;5.10;;
1428;SDS011;708;51.442;7.016;2024-02-26T01:55:36;6.15;;;5.95;;
1428;SDS011;708;51.442;7.016;2024-02-26T01:58:03;6.07;;;5.88;;
1428;SDS011;708;51.442;7.016;2024-02-26T02:00:32;6.70;;;6.40;;
1428;SDS011;708;51.442;7.016;2024-02-26T02:02:59;5.95;;;5.75;;
1428;SDS011;708;51.442;7.016;2024-02-26T02:05:28;5.47;;;5.28;;
1428;SDS011;708;51.442;7.016;2024-02-26T02:07:55;6.15;;;5.95;;
1428;SDS011;708;51.442;7.016;2024-02-26T02:10:23;5.93;;;5.72;;
1428;SDS011;708;51.442;7.016;2024-02-26T02:12:53;6.53;;;6.22;;
1428;SDS011;708;51.442;7.016;2024-02-26T02:15:19;6.00;;;5.80;;
1428;SDS011;708;51.442;7.016;2024-02-26T02:17:48;7.45;;;7.15;;
1428;SDS011;708;51.442;7.016;2024-02-26T02:20:15;7.05;;;6.75;;
1428;SDS011;708;51.442;7.016;2024-02-26T02:22:45;6.65;;;6.40;;
1428;SDS011;708;51.442;7.016;2024-02-26T02:25:31;6.55;;;6.25;;
1428;SDS011;708;51.442;7.016;2024-02-26T02:27:58;6.40;;;6.20;;
1428;SDS011;708;51.442;7.016;2024-02-26T02:30:26;7.15;;;6.85;;
1428;SDS011;708;51.442;7.016;2024-02-26T02:32:55;6.82;;;6.60;;
1428;SDS011;708;51.442;7.016;2024-02-26T02:35:37;6.03;;;5.82;;
1428;SDS011;708;51.442;7.016;2024-02-26T02:38:49;6.15;;;5.95;;
1428;SDS011;708;51.442;7.016;2024-02-26T02:41:17;6.22;;;5.93;;
1428;SDS011;708;51.442;7.016;2024-02-26T02:43:44;5.72;;;5.53;;
1428;SDS011;708;51.442;7.016;2024-02-26T02:46:12;5.85;;;5.65;;
1428;SDS011;708;51.442;7.016;2024-02-26T02:48:39;5.72;;;5.53;;
1428;SDS011;708;51.442;7.016;2024-02-26T02:51:07;6.97;;;6.60;;
1428;SDS011;708;51.442;7.016;2024-02-26T02:53:34;5.88;;;5.68;;
1428;SDS011;708;51.442;7.016;2024-02-26T02:56:02;7.38;;;6.95;;
1428;SDS011;708;51.442;7.016;2024-02-26T02:58:29;6.13;;;5.93;;
1428;SDS011;708;51.442;7.016;2024-02-26T03:00:56;6.53;;;6.25;;
1428;SDS011;708;51.442;7.016;2024-02-26T03:03:25;6.95;;;6.65;;
1428;SDS011;708;51.442;7.016;2024-02-26T03:05:55;6.82;;;6.53;;
1428;SDS011;708;51.442;7.016;2024-02-26T03:08:26;7.05;;;6.75;;
1428;SDS011;708;51.442;7.016;2024-02-26T03:11:04;7.05;;;6.75;;
1428;SDS011;708;51.442;7.016;2024-02-26T03:13:36;6.18;;;5.97;;
1428;SDS011;708;51.442;7.016;2024-02-26T03:16:54;5.85;;;5.65;;
1428;SDS011;708;51.442;7.016;2024-02-26T03:19:42;7.03;;;6.72;;
1428;SDS011;708;51.442;7.016;2024-02-26T03:22:20;6.15;;;5.95;;
1428;SDS011;708;51.442;7.016;2024-02-26T03:24:54;7.32;;;7.03;;
1428;SDS011;708;51.442;7.016;2024-02-26T03:27:39;6.63;;;6.43;;
1428;SDS011;708;51.442;7.016;2024-02-26T03:30:11;8.63;;;8.25;;
1428;SDS011;708;51.442;7.016;2024-02-26T03:33:32;7.88;;;7.57;;
1428;SDS011;708;51.442;7.016;2024-02-26T03:35:54;8.82;;;8.43;;
1428;SDS011;708;51.442;7.016;2024-02-26T03:38:21;9.18;;;8.73;;
1428;SDS011;708;51.442;7.016;2024-02-26T03:40:48;7.80;;;7.50;;
1428;SDS011;708;51.442;7.016;2024-02-26T03:43:17;10.15;;;9.85;;
1428;SDS011;708;51.442;7.016;2024-02-26T03:45:43;9.88;;;9.55;;
1428;SDS011;708;51.442;7.016;2024-02-26T03:48:10;9.15;;;8.85;;
1428;SDS011;708;51.442;7.016;2024-02-26T03:50:37;9.38;;;9.07;;
1428;SDS011;708;51.442;7.016;2024-02-26T03:53:03;11.30;;;10.80;;
1428;SDS011;708;51.442;7.016;2024-02-26T03:55:30;10.27;;;9.98;;
1428;SDS011;708;51.442;7.016;2024-02-26T03:57:57;10.35;;;9.95;;
1428;SDS011;708;51.442;7.016;2024-02-26T04:00:25;11.20;;;10.55;;
1428;SDS011;708;51.442;7.016;2024-02-26T04:02:54;8.95;;;8.65;;
1428;SDS011;708;51.442;7.016;2024-02-26T04:05:21;10.93;;;10.52;;
1428;SDS011;708;51.442;7.016;2024-02-26T04:07:47;14.38;;;10.73;;
1428;SDS011;708;51.442;7.016;2024-02-26T04:10:14;9.02;;;8.73;;
1428;SDS011;708;51.442;7.016;2024-02-26T04:12:41;9.50;;;9.20;;
1428;SDS011;708;51.442;7.016;2024-02-26T04:15:09;10.38;;;9.98;;
1428;SDS011;708;51.442;7.016;2024-02-26T04:17:38;12.45;;;11.95;;
1428;SDS011;708;51.442;7.016;2024-02-26T04:20:05;9.25;;;8.95;;
1428;SDS011;708;51.442;7.016;2024-02-26T04:22:34;10.82;;;10.32;;
1428;SDS011;708;51.442;7.016;2024-02-26T04:25:01;11.07;;;10.68;;
1428;SDS011;708;51.442;7.016;2024-02-26T04:27:28;11.48;;;11.07;;
1428;SDS011;708;51.442;7.016;2024-02-26T04:29:55;10.82;;;10.43;;
1428;SDS011;708;51.442;7.016;2024-02-26T04:32:22;10.15;;;9.57;;
1428;SDS011;708;51.442;7.016;2024-02-26T04:34:51;10.35;;;9.95;;
1428;SDS011;708;51.442;7.016;2024-02-26T04:37:18;10.75;;;10.18;;
1428;SDS011;708;51.442;7.016;2024-02-26T04:39:45;10.85;;;10.45;;
1428;SDS011;708;51.442;7.016;2024-02-26T04:42:12;11.50;;;11.00;;
1428;SDS011;708;51.442;7.016;2024-02-26T04:44:39;12.07;;;11.57;;
1428;SDS011;708;51.442;7.016;2024-02-26T04:47:06;12.40;;;11.90;;
1428;SDS011;708;51.442;7.016;2024-02-26T04:49:34;11.23;;;10.82;;
1428;SDS011;708;51.442;7.016;2024-02-26T04:52:02;10.95;;;10.55;;
1428;SDS011;708;51.442;7.016;2024-02-26T04:54:30;11.73;;;11.32;;
1428;SDS011;708;51.442;7.016;2024-02-26T04:56:56;12.13;;;11.73;;
1428;SDS011;708;51.442;7.016;2024-02-26T04:59:23;12.77;;;12.27;;
1428;SDS011;708;51.442;7.016;2024-02-26T05:01:50;13.13;;;12.63;;
1428;SDS011;708;51.442;7.016;2024-02-26T05:04:18;14.30;;;13.65;;
1428;SDS011;708;51.442;7.016;2024-02-26T05:06:45;14.18;;;13.68;;
1428;SDS011;708;51.442;7.016;2024-02-26T05:09:16;13.65;;;13.15;;
1428;SDS011;708;51.442;7.016;2024-02-26T05:11:43;12.73;;;12.23;;
1428;SDS011;708;51.442;7.016;2024-02-26T05:14:10;14.65;;;14.15;;
1428;SDS011;708;51.442;7.016;2024-02-26T05:16:40;11.82;;;11.43;;
1428;SDS011;708;51.442;7.016;2024-02-26T05:19:07;12.65;;;12.15;;
1428;SDS011;708;51.442;7.016;2024-02-26T05:21:37;12.80;;;12.30;;
1428;SDS011;708;51.442;7.016;2024-02-26T05:24:05;12.73;;;12.23;;
1428;SDS011;708;51.442;7.016;2024-02-26T05:26:34;13.05;;;12.55;;
1428;SDS011;708;51.442;7.016;2024-02-26T05:29:01;11.90;;;11.50;;
1428;SDS011;708;51.442;7.016;2024-02-26T05:31:29;12.10;;;11.70;;
1428;SDS011;708;51.442;7.016;2024-02-26T05:33:59;14.57;;;14.07;;
1428;SDS011;708;51.442;7.016;2024-02-26T05:36:31;13.70;;;13.20;;
1428;SDS011;708;51.442;7.016;2024-02-26T05:38:58;16.15;;;15.60;;
1428;SDS011;708;51.442;7.016;2024-02-26T05:41:26;14.23;;;13.73;;
1428;SDS011;708;51.442;7.016;2024-02-26T05:43:58;15.93;;;15.32;;
1428;SDS011;708;51.442;7.016;2024-02-26T05:46:35;14.20;;;13.70;;
1428;SDS011;708;51.442;7.016;2024-02-26T05:49:02;14.23;;;13.60;;
1428;SDS011;708;51.442;7.016;2024-02-26T05:51:32;12.77;;;12.38;;
1428;SDS011;708;51.442;7.016;2024-02-26T05:53:59;14.55;;;13.95;;
1428;SDS011;708;51.442;7.016;2024-02-26T05:56:27;14.32;;;13.82;;
1428;SDS011;708;51.442;7.016;2024-02-26T05:58:55;16.63;;;15.27;;
1428;SDS011;708;51.442;7.016;2024-02-26T06:01:22;15.18;;;14.63;;
1428;SDS011;708;51.442;7.016;2024-02-26T06:03:49;15.35;;;14.70;;
1428;SDS011;708;51.442;7.016;2024-02-26T06:06:16;14.50;;;14.00;;
1428;SDS011;708;51.442;7.016;2024-02-26T06:08:43;11.30;;;10.90;;
1428;SDS011;708;51.442;7.016;2024-02-26T06:11:10;13.15;;;12.65;;
1428;SDS011;708;51.442;7.016;2024-02-26T06:13:37;11.93;;;11.43;;
1428;SDS011;708;51.442;7.016;2024-02-26T06:16:05;14.13;;;13.50;;
1428;SDS011;708;51.442;7.016;2024-02-26T06:18:34;13.35;;;12.40;;
1428;SDS011;708;51.442;7.016;2024-02-26T06:21:00;13.30;;;12.85;;
1428;SDS011;708;51.442;7.016;2024-02-26T06:23:27;16.20;;;14.20;;
1428;SDS011;708;51.442;7.016;2024-02-26T06:25:54;17.27;;;16.58;;
1428;SDS011;708;51.442;7.016;2024-02-26T06:28:21;15.20;;;14.60;;
1428;SDS011;708;51.442;7.016;2024-02-26T06:30:48;14.70;;;14.10;;
1428;SDS011;708;51.442;7.016;2024-02-26T06:33:16;15.70;;;15.20;;
1428;SDS011;708;51.442;7.016;2024-02-26T06:35:44;15.70;;;15.10;;
1428;SDS011;708;51.442;7.016;2024-02-26T06:38:15;13.35;;;12.85;;
1428;SDS011;708;51.442;7.016;2024-02-26T06:40:43;14.10;;;13.60;;
1428;SDS011;708;51.442;7.016;2024-02-26T06:43:10;17.20;;;16.60;;
1428;SDS011;708;51.442;7.016;2024-02-26T06:45:37;17.67;;;17.00;;
1428;SDS011;708;51.442;7.016;2024-02-26T06:48:04;17.38;;;16.70;;
1428;SDS011;708;51.442;7.016;2024-02-26T06:50:33;13.35;;;12.90;;
1428;SDS011;708;51.442;7.016;2024-02-26T06:53:00;15.10;;;14.50;;
1428;SDS011;708;51.442;7.016;2024-02-26T06:55:27;13.95;;;13.45;;
1428;SDS011;708;51.442;7.016;2024-02-26T06:57:53;14.45;;;13.95;;
1428;SDS011;708;51.442;7.016;2024-02-26T07:00:20;15.55;;;14.95;;
1428;SDS011;708;51.442;7.016;2024-02-26T07:02:47;14.57;;;14.07;;
1428;SDS011;708;51.442;7.016;2024-02-26T07:05:16;14.45;;;13.95;;
1428;SDS011;708;51.442;7.016;2024-02-26T07:07:45;15.38;;;14.77;;
1428;SDS011;708;51.442;7.016;2024-02-26T07:10:12;14.10;;;13.60;;
1428;SDS011;708;51.442;7.016;2024-02-26T07:12:39;15.10;;;14.50;;
1428;SDS011;708;51.442;7.016;2024-02-26T07:15:06;14.48;;;13.98;;
1428;SDS011;708;51.442;7.016;2024-02-26T07:17:34;13.55;;;13.07;;
1428;SDS011;708;51.442;7.016;2024-02-26T07:20:01;13.65;;;13.05;;
1428;SDS011;708;51.442;7.016;2024-02-26T07:22:29;14.48;;;13.77;;
1428;SDS011;708;51.442;7.016;2024-02-26T07:24:57;13.43;;;12.93;;
1428;SDS011;708;51.442;7.016;2024-02-26T07:27:24;15.52;;;14.88;;
1428;SDS011;708;51.442;7.016;2024-02-26T07:29:51;15.77;;;14.68;;
1428;SDS011;708;51.442;7.016;2024-02-26T07:32:17;15.25;;;14.55;;
1428;SDS011;708;51.442;7.016;2024-02-26T07:34:44;16.05;;;15.45;;
1428;SDS011;708;51.442;7.016;2024-02-26T07:37:11;15.95;;;15.45;;
1428;SDS011;708;51.442;7.016;2024-02-26T07:39:38;15.10;;;14.60;;
1428;SDS011;708;51.442;7.016;2024-02-26T07:42:06;14.73;;;14.18;;
1428;SDS011;708;51.442;7.016;2024-02-26T07:44:33;16.25;;;15.65;;
1428;SDS011;708;51.442;7.016;2024-02-26T07:46:59;17.42;;;16.63;;
1428;SDS011;708;51.442;7.016;2024-02-26T07:49:26;17.42;;;16.67;;
1428;SDS011;708;51.442;7.016;2024-02-26T07:51:56;15.82;;;15.32;;
1428;SDS011;708;51.442;7.016;2024-02-26T07:54:23;18.13;;;17.45;;
1428;SDS011;708;51.442;7.016;2024-02-26T07:56:49;17.35;;;16.75;;
1428;SDS011;708;51.442;7.016;2024-02-26T07:59:18;15.55;;;15.05;;
1428;SDS011;708;51.442;7.016;2024-02-26T08:01:49;19.17;;;18.48;;
1428;SDS011;708;51.442;7.016;2024-02-26T08:04:16;19.92;;;19.23;;
1428;SDS011;708;51.442;7.016;2024-02-26T08:06:43;21.48;;;20.67;;
1428;SDS011;708;51.442;7.016;2024-02-26T08:09:17;14.63;;;14.13;;
1428;SDS011;708;51.442;7.016;2024-02-26T08:11:42;16.67;;;16.10;;
1428;SDS011;708;51.442;7.016;2024-02-26T08:14:09;18.02;;;17.33;;
1428;SDS011;708;51.442;7.016;2024-02-26T08:16:37;13.63;;;13.13;;
1428;SDS011;708;51.442;7.016;2024-02-26T08:19:04;16.58;;;16.08;;
1428;SDS011;708;51.442;7.016;2024-02-26T08:21:31;18.38;;;17.77;;
1428;SDS011;708;51.442;7.016;2024-02-26T08:23:57;19.05;;;18.25;;
1428;SDS011;708;51.442;7.016;2024-02-26T08:26:24;16.17;;;15.68;;
1428;SDS011;708;51.442;7.016;2024-02-26T08:28:51;19.02;;;18.33;;
1428;SDS011;708;51.442;7.016;2024-02-26T08:31:19;19.27;;;18.67;;
1428;SDS011;708;51.442;7.016;2024-02-26T08:33:49;18.65;;;17.95;;
1428;SDS011;708;51.442;7.016;2024-02-26T08:36:16;18.83;;;18.13;;
1428;SDS011;708;51.442;7.016;2024-02-26T08:38:43;17.88;;;17.25;;
1428;SDS011;708;51.442;7.016;2024-02-26T08:41:10;20.45;;;19.65;;
1428;SDS011;708;51.442;7.016;2024-02-26T08:43:38;20.00;;;19.20;;
1428;SDS011;708;51.442;7.016;2024-02-26T08:46:07;18.95;;;18.25;;
1428;SDS011;708;51.442;7.016;2024-02-26T08:48:35;16.65;;;16.15;;
1428;SDS011;708;51.442;7.016;2024-02-26T08:51:05;19.20;;;18.60;;
1428;SDS011;708;51.442;7.016;2024-02-26T08:53:33;18.33;;;17.73;;
1428;SDS011;708;51.442;7.016;2024-02-26T08:56:00;19.88;;;19.00;;
1428;SDS011;708;51.442;7.016;2024-02-26T08:58:27;15.30;;;14.80;;
1428;SDS011;708;51.442;7.016;2024-02-26T09:00:54;17.70;;;17.10;;
1428;SDS011;708;51.442;7.016;2024-02-26T09:03:20;17.95;;;17.35;;
1428;SDS011;708;51.442;7.016;2024-02-26T09:05:47;22.45;;;20.60;;
1428;SDS011;708;51.442;7.016;2024-02-26T09:08:16;17.67;;;17.08;;
1428;SDS011;708;51.442;7.016;2024-02-26T09:10:42;19.05;;;18.35;;
1428;SDS011;708;51.442;7.016;2024-02-26T09:13:09;18.80;;;18.20;;
1428;SDS011;708;51.442;7.016;2024-02-26T09:15:36;21.67;;;20.67;;
1428;SDS011;708;51.442;7.016;2024-02-26T09:18:03;23.38;;;22.38;;
1428;SDS011;708;51.442;7.016;2024-02-26T09:20:30;22.85;;;21.92;;
1428;SDS011;708;51.442;7.016;2024-02-26T09:22:56;20.55;;;19.75;;
1428;SDS011;708;51.442;7.016;2024-02-26T09:25:24;20.63;;;19.92;;
1428;SDS011;708;51.442;7.016;2024-02-26T09:27:51;22.50;;;21.50;;
1428;SDS011;708;51.442;7.016;2024-02-26T09:30:18;22.77;;;21.88;;
1428;SDS011;708;51.442;7.016;2024-02-26T09:32:45;18.02;;;17.33;;
1428;SDS011;708;51.442;7.016;2024-02-26T09:35:13;20.63;;;19.92;;
1428;SDS011;708;51.442;7.016;2024-02-26T09:37:39;21.95;;;21.15;;
1428;SDS011;708;51.442;7.016;2024-02-26T09:40:08;20.30;;;19.60;;
1428;SDS011;708;51.442;7.016;2024-02-26T09:42:38;20.85;;;20.15;;
1428;SDS011;708;51.442;7.016;2024-02-26T09:45:11;22.25;;;21.45;;
1428;SDS011;708;51.442;7.016;2024-02-26T09:47:47;21.85;;;20.95;;
1428;SDS011;708;51.442;7.016;2024-02-26T09:50:14;22.27;;;21.48;;
1428;SDS011;708;51.442;7.016;2024-02-26T09:52:47;23.90;;;22.77;;
1428;SDS011;708;51.442;7.016;2024-02-26T09:55:14;23.52;;;22.63;;
1428;SDS011;708;51.442;7.016;2024-02-26T09:57:44;22.65;;;21.85;;
1428;SDS011;708;51.442;7.016;2024-02-26T10:00:14;24.02;;;23.13;;
1428;SDS011;708;51.442;7.016;2024-02-26T10:02:43;22.05;;;21.35;;
1428;SDS011;708;51.442;7.016;2024-02-26T10:05:11;22.67;;;21.88;;
1428;SDS011;708;51.442;7.016;2024-02-26T10:07:43;24.90;;;23.90;;
1428;SDS011;708;51.442;7.016;2024-02-26T10:10:10;23.25;;;22.45;;
1428;SDS011;708;51.442;7.016;2024-02-26T10:12:38;24.27;;;23.48;;
1428;SDS011;708;51.442;7.016;2024-02-26T10:15:07;24.58;;;23.67;;
1428;SDS011;708;51.442;7.016;2024-02-26T10:17:34;25.90;;;25.00;;
1428;SDS011;708;51.442;7.016;2024-02-26T10:20:11;25.38;;;24.48;;
1428;SDS011;708;51.442;7.016;2024-02-26T10:22:38;25.40;;;24.50;;
1428;SDS011;708;51.442;7.016;2024-02-26T10:25:05;26.67;;;25.65;;
1428;SDS011;708;51.442;7.016;2024-02-26T10:27:33;23.95;;;23.00;;
1428;SDS011;708;51.442;7.016;2024-02-26T10:30:01;25.17;;;24.27;;
1428;SDS011;708;51.442;7.016;2024-02-26T10:32:33;23.83;;;23.02;;
1428;SDS011;708;51.442;7.016;2024-02-26T10:35:00;26.17;;;25.13;;
1428;SDS011;708;51.442;7.016;2024-02-26T10:37:28;27.40;;;26.20;;
1428;SDS011;708;51.442;7.016;2024-02-26T10:39:54;27.02;;;25.58;;
1428;SDS011;708;51.442;7.016;2024-02-26T10:42:22;24.95;;;24.05;;
1428;SDS011;708;51.442;7.016;2024-02-26T10:44:49;24.65;;;23.67;;
1428;SDS011;708;51.442;7.016;2024-02-26T10:47:16;24.23;;;23.33;;
1428;SDS011;708;51.442;7.016;2024-02-26T10:49:47;27.77;;;26.10;;
1428;SDS011;708;51.442;7.016;2024-02-26T10:52:15;23.30;;;22.40;;
1428;SDS011;708;51.442;7.016;2024-02-26T10:54:44;25.15;;;24.17;;
1428;SDS011;708;51.442;7.016;2024-02-26T10:57:15;25.20;;;24.40;;
1428;SDS011;708;51.442;7.016;2024-02-26T10:59:43;22.80;;;21.92;;
1428;SDS011;708;51.442;7.016;2024-02-26T11:02:10;23.25;;;21.88;;
1428;SDS011;708;51.442;7.016;2024-02-26T11:04:39;23.05;;;22.05;;
1428;SDS011;708;51.442;7.016;2024-02-26T11:07:07;23.23;;;21.98;;
1428;SDS011;708;51.442;7.016;2024-02-26T11:09:35;16.92;;;16.33;;
1428;SDS011;708;51.442;7.016;2024-02-26T11:12:07;21.63;;;20.30;;
1428;SDS011;708;51.442;7.016;2024-02-26T11:14:37;20.17;;;19.48;;
1428;SDS011;708;51.442;7.016;2024-02-26T11:17:06;23.77;;;22.55;;
1428;SDS011;708;51.442;7.016;2024-02-26T11:19:35;19.17;;;18.48;;
1428;SDS011;708;51.442;7.016;2024-02-26T11:22:04;19.58;;;18.65;;
1428;SDS011;708;51.442;7.016;2024-02-26T11:24:32;19.52;;;18.83;;
1428;SDS011;708;51.442;7.016;2024-02-26T11:27:01;19.60;;;18.90;;
1428;SDS011;708;51.442;7.016;2024-02-26T11:29:32;18.88;;;18.27;;
1428;SDS011;708;51.442;7.016;2024-02-26T11:32:01;21.23;;;20.42;;
1428;SDS011;708;51.442;7.016;2024-02-26T11:34:29;18.45;;;17.85;;
1428;SDS011;708;51.442;7.016;2024-02-26T11:36:56;21.80;;;20.70;;
1428;SDS011;708;51.442;7.016;2024-02-26T11:39:23;23.70;;;22.58;;
1428;SDS011;708;51.442;7.016;2024-02-26T11:41:52;21.65;;;20.75;;
1428;SDS011;708;51.442;7.016;2024-02-26T11:44:28;22.05;;;21.25;;
1428;SDS011;708;51.442;7.016;2024-02-26T11:46:55;21.45;;;20.67;;
1428;SDS011;708;51.442;7.016;2024-02-26T11:49:30;22.73;;;21.83;;
1428;SDS011;708;51.442;7.016;2024-02-26T11:51:57;23.77;;;22.67;;
1428;SDS011;708;51.442;7.016;2024-02-26T11:54:37;21.33;;;20.52;;
1428;SDS011;708;51.442;7.016;2024-02-26T11:59:52;22.23;;;21.42;;
1428;SDS011;708;51.442;7.016;2024-02-26T12:02:38;24.80;;;23.80;;
1428;SDS011;708;51.442;7.016;2024-02-26T12:05:13;25.45;;;24.10;;
1428;SDS011;708;51.442;7.016;2024-02-26T12:07:45;21.70;;;20.80;;
1428;SDS011;708;51.442;7.016;2024-02-26T12:10:14;23.27;;;22.27;;
1428;SDS011;708;51.442;7.016;2024-02-26T12:12:56;21.05;;;20.25;;
1428;SDS011;708;51.442;7.016;2024-02-26T12:15:30;19.50;;;18.80;;
1428;SDS011;708;51.442;7.016;2024-02-26T12:17:59;20.35;;;19.15;;
1428;SDS011;708;51.442;7.016;2024-02-26T12:20:27;15.23;;;14.73;;
1428;SDS011;708;51.442;7.016;2024-02-26T12:22:54;15.98;;;15.38;;
1428;SDS011;708;51.442;7.016;2024-02-26T12:25:22;17.15;;;16.15;;
1428;SDS011;708;51.442;7.016;2024-02-26T12:27:50;16.60;;;15.90;;
1428;SDS011;708;51.442;7.016;2024-02-26T12:30:18;16.23;;;15.63;;
1428;SDS011;708;51.442;7.016;2024-02-26T12:32:45;17.95;;;17.02;;
1428;SDS011;708;51.442;7.016;2024-02-26T12:35:13;16.58;;;15.65;;
1428;SDS011;708;51.442;7.016;2024-02-26T12:37:40;17.15;;;16.45;;
1428;SDS011;708;51.442;7.016;2024-02-26T12:40:08;23.95;;;22.20;;
1428;SDS011;708;51.442;7.016;2024-02-26T12:42:36;17.92;;;17.13;;
1428;SDS011;708;51.442;7.016;2024-02-26T12:45:05;19.05;;;18.15;;
1428;SDS011;708;51.442;7.016;2024-02-26T12:47:38;18.65;;;17.45;;
1428;SDS011;708;51.442;7.016;2024-02-26T12:50:06;19.23;;;18.25;;
1428;SDS011;708;51.442;7.016;2024-02-26T12:52:33;18.40;;;17.27;;
1428;SDS011;708;51.442;7.016;2024-02-26T12:55:01;18.75;;;17.67;;
1428;SDS011;708;51.442;7.016;2024-02-26T12:57:29;14.52;;;14.02;;
1428;SDS011;708;51.442;7.016;2024-02-26T12:59:57;16.65;;;15.95;;
1428;SDS011;708;51.442;7.016;2024-02-26T13:02:25;15.02;;;14.25;;
1428;SDS011;708;51.442;7.016;2024-02-26T13:04:54;14.05;;;13.55;;
1428;SDS011;708;51.442;7.016;2024-02-26T13:07:28;16.95;;;16.05;;
1428;SDS011;708;51.442;7.016;2024-02-26T13:10:11;14.35;;;13.85;;
1428;SDS011;708;51.442;7.016;2024-02-26T13:12:42;12.73;;;12.23;;
1428;SDS011;708;51.442;7.016;2024-02-26T13:15:13;14.52;;;14.02;;
1428;SDS011;708;51.442;7.016;2024-02-26T13:17:41;15.30;;;14.80;;
1428;SDS011;708;51.442;7.016;2024-02-26T13:20:09;12.90;;;12.40;;
1428;SDS011;708;51.442;7.016;2024-02-26T13:22:37;14.38;;;13.88;;
1428;SDS011;708;51.442;7.016;2024-02-26T13:25:07;12.20;;;11.70;;
1428;SDS011;708;51.442;7.016;2024-02-26T13:27:34;12.63;;;12.13;;
1428;SDS011;708;51.442;7.016;2024-02-26T13:30:01;12.90;;;12.40;;
1428;SDS011;708;51.442;7.016;2024-02-26T13:32:31;13.35;;;12.75;;
1428;SDS011;708;51.442;7.016;2024-02-26T13:35:07;12.30;;;11.70;;
1428;SDS011;708;51.442;7.016;2024-02-26T13:37:37;11.27;;;10.63;;
1428;SDS011;708;51.442;7.016;2024-02-26T13:40:05;13.23;;;12.52;;
1428;SDS011;708;51.442;7.016;2024-02-26T13:42:33;12.18;;;11.57;;
1428;SDS011;708;51.442;7.016;2024-02-26T13:45:00;12.48;;;11.90;;
1428;SDS011;708;51.442;7.016;2024-02-26T13:47:28;12.85;;;12.07;;
1428;SDS011;708;51.442;7.016;2024-02-26T13:49:54;11.20;;;10.60;;
1428;SDS011;708;51.442;7.016;2024-02-26T13:52:22;11.23;;;10.82;;
1428;SDS011;708;51.442;7.016;2024-02-26T13:54:50;11.02;;;10.43;;
1428;SDS011;708;51.442;7.016;2024-02-26T13:57:17;9.48;;;9.18;;
1428;SDS011;708;51.442;7.016;2024-02-26T13:59:44;8.77;;;8.43;;
1428;SDS011;708;51.442;7.016;2024-02-26T14:02:11;8.43;;;8.13;;
1428;SDS011;708;51.442;7.016;2024-02-26T14:04:38;11.32;;;9.10;;
1428;SDS011;708;51.442;7.016;2024-02-26T14:07:05;10.07;;;9.68;;
1428;SDS011;708;51.442;7.016;2024-02-26T14:09:34;10.27;;;9.88;;
1428;SDS011;708;51.442;7.016;2024-02-26T14:12:00;9.98;;;9.50;;
1428;SDS011;708;51.442;7.016;2024-02-26T14:14:28;11.48;;;10.88;;
1428;SDS011;708;51.442;7.016;2024-02-26T14:16:57;9.45;;;9.05;;
1428;SDS011;708;51.442;7.016;2024-02-26T14:19:24;8.43;;;8.02;;
1428;SDS011;708;51.442;7.016;2024-02-26T14:21:53;9.05;;;8.75;;
1428;SDS011;708;51.442;7.016;2024-02-26T14:24:22;9.05;;;8.75;;
1428;SDS011;708;51.442;7.016;2024-02-26T14:26:51;11.35;;;10.75;;
1428;SDS011;708;51.442;7.016;2024-02-26T14:29:18;9.65;;;9.15;;
1428;SDS011;708;51.442;7.016;2024-02-26T14:31:45;10.43;;;9.93;;
1428;SDS011;708;51.442;7.016;2024-02-26T14:34:15;8.70;;;8.40;;
1428;SDS011;708;51.442;7.016;2024-02-26T14:36:43;9.32;;;8.93;;
1428;SDS011;708;51.442;7.016;2024-02-26T14:39:10;9.98;;;9.68;;
1428;SDS011;708;51.442;7.016;2024-02-26T14:41:37;9.48;;;9.07;;
1428;SDS011;708;51.442;7.016;2024-02-26T14:44:07;8.32;;;7.82;;
1428;SDS011;708;51.442;7.016;2024-02-26T14:46:35;7.75;;;7.45;;
1428;SDS011;708;51.442;7.016;2024-02-26T14:49:02;10.35;;;9.80;;
1428;SDS011;708;51.442;7.016;2024-02-26T14:51:29;9.52;;;9.07;;
1428;SDS011;708;51.442;7.016;2024-02-26T14:53:55;9.05;;;8.75;;
1428;SDS011;708;51.442;7.016;2024-02-26T14:56:27;7.78;;;7.47;;
1428;SDS011;708;51.442;7.016;2024-02-26T14:58:53;8.52;;;8.23;;
1428;SDS011;708;51.442;7.016;2024-02-26T15:01:22;8.52;;;8.23;;
1428;SDS011;708;51.442;7.016;2024-02-26T15:03:49;7.88;;;7.47;;
1428;SDS011;708;51.442;7.016;2024-02-26T15:06:16;9.45;;;8.77;;
1428;SDS011;708;51.442;7.016;2024-02-26T15:08:43;9.23;;;8.93;;
1428;SDS011;708;51.442;7.016;2024-02-26T15:11:09;9.27;;;8.88;;
1428;SDS011;708;51.442;7.016;2024-02-26T15:13:36;9.43;;;9.13;;
1428;SDS011;708;51.442;7.016;2024-02-26T15:16:04;8.50;;;8.15;;
1428;SDS011;708;51.442;7.016;2024-02-26T15:18:33;8.07;;;7.78;;
1428;SDS011;708;51.442;7.016;2024-02-26T15:20:59;7.78;;;7.47;;
1428;SDS011;708;51.442;7.016;2024-02-26T15:23:28;10.27;;;9.80;;